Terminal Aerodrome Forecast
Issued by NWS Wilmington, OH

Current Version | Previous Version | Graphics & Text | Print | Product List | Glossary On
Versions: 1 2 3 4 5 6 7 8 9 10 11 12 13 14 15 16 17 18
541
FTUS41 KILN 150336 AAA
TAFDAY
TAF AMD
KDAY 150336Z 1504/1524 27003KT P6SM OVC160
     FM151200 24011KT P6SM BKN035
     FM151800 26015G25KT P6SM BKN035
     FM152200 26010KT P6SM BKN090=

USA.gov is the U.S. government's official web portal to all federal, state and local government web resources and services.